Time;durP1;ratioP1;P1;durP2;ratioP2;P2;SDS_P1;SDS_P2;PMS_P1;PMS_P2;Temp;Humidity;BMP_temperature;BMP_pressure;BME280_temperature;BME280_humidity;BME280_pressure;Samples;Min_cycle;Max_cycle;Signal;HPM_P1;HPM_P2
2022/06/24 00:01:28;;;;;;;2.08;1.10;;;;;;;21.88;42.05;99452.81;4451506;32;33663;-85
2022/06/24 00:03:57;;;;;;;1.73;1.30;;;;;;;21.97;41.61;99444.31;4444061;32;33835;-85
2022/06/24 00:06:30;;;;;;;1.90;1.10;;;;;;;21.89;41.81;99455.38;4444654;32;33774;-85
2022/06/24 00:09:00;;;;;;;1.70;1.08;;;;;;;21.91;41.99;99456.09;4450226;32;33609;-85
2022/06/24 00:11:29;;;;;;;2.25;1.30;;;;;;;21.95;41.61;99448.84;4464687;32;32874;-85
2022/06/24 00:14:05;;;;;;;2.80;1.27;;;;;;;21.88;41.92;99451.03;4443819;32;34865;-85
2022/06/24 00:16:53;;;;;;;2.35;1.20;;;;;;;21.84;41.56;99449.53;4459054;32;34291;-86
2022/06/24 00:19:22;;;;;;;2.95;1.50;;;;;;;21.82;42.00;99453.19;4459514;32;34148;-85
2022/06/24 00:22:05;;;;;;;2.37;1.17;;;;;;;21.77;42.20;99452.66;4460223;32;33631;-85
2022/06/24 00:24:37;;;;;;;2.58;1.27;;;;;;;21.64;42.02;99455.22;4444811;32;33707;-82
2022/06/24 00:27:17;;;;;;;3.33;1.02;;;;;;;22.74;52.29;99465.75;4448747;32;33813;-85
2022/06/24 00:29:49;;;;;;;1.40;0.90;;;;;;;22.33;41.40;99462.25;4443733;32;33443;-86
2022/06/24 00:32:30;;;;;;;4.12;1.10;;;;;;;22.25;40.82;99461.88;4443834;32;33857;-84
2022/06/24 00:35:06;;;;;;;2.20;1.40;;;;;;;22.18;40.83;99468.50;4459495;32;34747;-85
2022/06/24 00:37:35;;;;;;;1.48;1.00;;;;;;;22.18;41.28;99457.94;4459285;32;33213;-85
2022/06/24 00:40:23;;;;;;;4.78;1.33;;;;;;;22.18;40.98;99460.59;4457583;32;33983;-85
2022/06/24 00:42:52;;;;;;;2.17;1.10;;;;;;;22.14;40.92;99459.09;4457270;32;34130;-85
2022/06/24 00:45:25;;;;;;;5.93;1.35;;;;;;;22.18;40.79;99455.31;4452151;32;34858;-85
2022/06/24 00:47:55;;;;;;;3.70;1.30;;;;;;;22.23;40.41;99452.37;4446529;32;33403;-85
2022/06/24 00:50:26;;;;;;;1.75;1.20;;;;;;;22.22;40.66;99451.53;4443772;32;33242;-85
2022/06/24 00:52:57;;;;;;;2.17;1.30;;;;;;;22.15;40.71;99453.69;4444547;32;34181;-85
2022/06/24 00:55:29;;;;;;;1.85;1.12;;;;;;;22.16;41.04;99454.56;4446292;32;33979;-84
2022/06/24 00:57:59;;;;;;;1.30;1.00;;;;;;;22.09;41.14;99450.59;4453187;32;33941;-85
2022/06/24 01:00:30;;;;;;;2.30;1.00;;;;;;;22.03;41.06;99454.47;4448380;32;33548;-84
2022/06/24 01:03:00;;;;;;;2.12;1.20;;;;;;;22.00;41.29;99448.56;4445851;32;33455;-85
2022/06/24 01:05:31;;;;;;;2.55;1.27;;;;;;;22.03;40.52;99446.53;4445835;32;34034;-84
2022/06/24 01:08:06;;;;;;;2.83;1.62;;;;;;;21.97;40.34;99441.69;4447596;32;33698;-85
2022/06/24 01:10:37;;;;;;;3.67;1.90;;;;;;;21.94;40.83;99434.81;4448199;32;33819;-85
2022/06/24 01:13:08;;;;;;;0.90;0.80;;;;;;;21.93;41.05;99432.25;4451595;32;33290;-85
2022/06/24 01:15:37;;;;;;;3.53;1.58;;;;;;;21.87;40.98;99440.56;4445894;32;34820;-85
2022/06/24 01:18:07;;;;;;;1.73;1.10;;;;;;;22.00;40.85;99438.84;4443080;32;33233;-85
2022/06/24 01:20:36;;;;;;;2.55;1.20;;;;;;;21.99;40.69;99434.50;4446250;32;33021;-85
2022/06/24 01:23:07;;;;;;;2.15;1.30;;;;;;;21.95;40.78;99435.63;4445688;32;35141;-85
2022/06/24 01:25:36;;;;;;;4.93;1.03;;;;;;;22.02;40.67;99442.22;4451635;32;34020;-85
2022/06/24 01:28:06;;;;;;;2.22;1.17;;;;;;;22.00;40.38;99438.84;4456124;32;33693;-85
2022/06/24 01:30:34;;;;;;;2.03;1.20;;;;;;;21.98;40.75;99435.44;4458697;32;33071;-85
2022/06/24 01:33:03;;;;;;;2.50;1.08;;;;;;;21.91;41.39;99437.63;4457959;32;34698;-84
2022/06/24 01:35:32;;;;;;;1.27;0.80;;;;;;;21.94;40.99;99436.59;4446840;32;33931;-84
2022/06/24 01:38:01;;;;;;;1.65;0.88;;;;;;;21.99;41.07;99437.16;4464378;32;33264;-84
2022/06/24 01:40:31;;;;;;;3.35;1.10;;;;;;;21.89;41.10;99438.66;4466513;32;34145;-84
2022/06/24 01:43:02;;;;;;;1.25;0.98;;;;;;;21.83;41.15;99432.00;4463949;32;34439;-84
2022/06/24 01:45:31;;;;;;;1.35;0.98;;;;;;;21.84;40.75;99428.41;4449965;32;33593;-84
2022/06/24 01:47:59;;;;;;;2.22;1.27;;;;;;;21.67;41.57;99423.34;4451473;32;34054;-84
2022/06/24 01:50:28;;;;;;;2.28;1.30;;;;;;;21.87;40.91;99432.66;4453735;32;34229;-85
2022/06/24 01:52:57;;;;;;;1.92;1.00;;;;;;;21.79;40.72;99419.91;4448172;32;33339;-84
2022/06/24 01:55:26;;;;;;;1.92;1.12;;;;;;;21.76;40.52;99420.13;4447554;32;33313;-84
2022/06/24 01:57:56;;;;;;;2.72;1.50;;;;;;;21.68;40.52;99420.63;4461083;32;34023;-85
2022/06/24 02:00:25;;;;;;;1.37;1.20;;;;;;;21.76;40.87;99421.91;4463823;32;32987;-84
2022/06/24 02:02:54;;;;;;;1.67;1.10;;;;;;;21.87;40.75;99420.28;4464812;32;33079;-84
2022/06/24 02:05:25;;;;;;;2.25;1.20;;;;;;;21.71;40.47;99415.13;4454512;32;34480;-84
2022/06/24 02:07:54;;;;;;;1.35;1.23;;;;;;;21.71;40.60;99424.84;4459069;32;33542;-84
2022/06/24 02:13:28;;;;;;;2.12;1.40;;;;;;;21.86;39.79;99428.31;4414809;32;34709;-84
2022/06/24 02:15:58;;;;;;;2.72;1.35;;;;;;;21.31;40.77;99422.91;4415964;32;33808;-84
2022/06/24 02:18:28;;;;;;;3.08;1.08;;;;;;;21.80;39.57;99424.28;4401315;32;34319;-84
2022/06/24 02:20:58;;;;;;;1.48;1.10;;;;;;;21.75;39.50;99423.72;4405229;32;34009;-84
2022/06/24 02:23:28;;;;;;;0.95;0.80;;;;;;;21.65;39.44;99420.81;4399774;32;33583;-84
2022/06/24 02:25:58;;;;;;;1.37;1.00;;;;;;;21.74;39.07;99422.84;4399592;32;33622;-84
2022/06/24 02:28:28;;;;;;;2.70;1.30;;;;;;;21.87;38.86;99419.44;4412378;32;33880;-84
2022/06/24 02:31:01;;;;;;;2.87;1.10;;;;;;;22.16;37.88;99417.56;4414969;32;32784;-84
2022/06/24 02:33:31;;;;;;;2.97;1.20;;;;;;;21.97;38.87;99425.81;4420419;32;33521;-84
2022/06/24 02:36:00;;;;;;;3.22;1.58;;;;;;;21.92;38.72;99425.28;4411751;32;34038;-84
2022/06/24 02:38:29;;;;;;;1.65;0.90;;;;;;;21.95;39.01;99427.72;4399831;32;33816;-84
2022/06/24 02:40:58;;;;;;;1.27;1.00;;;;;;;21.74;39.01;99428.13;4399403;32;33183;-84
2022/06/24 02:43:32;;;;;;;2.72;1.27;;;;;;;22.19;38.24;99427.09;4399636;32;33947;-84
2022/06/24 02:46:02;;;;;;;1.60;0.98;;;;;;;21.93;39.10;99434.88;4407027;32;34667;-84
2022/06/24 02:48:32;;;;;;;3.27;1.10;;;;;;;21.88;38.46;99427.25;4408896;32;33353;-85
2022/06/24 02:51:03;;;;;;;1.52;0.90;;;;;;;22.14;38.34;99428.22;4432768;32;32156;-84
2022/06/24 02:53:33;;;;;;;1.70;1.20;;;;;;;21.83;38.71;99428.50;4447988;32;34280;-84
2022/06/24 02:56:03;;;;;;;1.40;1.00;;;;;;;22.03;38.97;99425.41;4447658;32;33725;-84
2022/06/24 02:58:34;;;;;;;1.95;1.10;;;;;;;22.13;38.39;99430.94;4448715;32;33430;-85
2022/06/24 03:01:04;;;;;;;2.00;0.90;;;;;;;22.09;38.58;99432.13;4455114;32;33784;-84
2022/06/24 03:03:34;;;;;;;;;;;;;;;22.08;38.88;99433.03;4463491;32;33707;-84
2022/06/24 03:06:02;;;;;;;1.87;1.15;;;;;;;22.11;38.77;99428.44;4446186;32;34038;-84
2022/06/24 03:08:31;;;;;;;2.67;0.77;;;;;;;22.09;38.94;99432.13;4448859;32;34117;-84
2022/06/24 03:11:00;;;;;;;1.80;0.90;;;;;;;22.22;38.75;99435.66;4458125;32;33266;-84
2022/06/24 03:13:29;;;;;;;1.75;1.20;;;;;;;22.09;39.10;99440.88;4448033;32;33444;-84
2022/06/24 03:16:01;;;;;;;1.30;0.93;;;;;;;22.25;38.79;99442.53;4453277;32;34692;-84
2022/06/24 03:18:30;;;;;;;4.00;1.42;;;;;;;22.26;38.75;99439.81;4447636;32;34567;-84
2022/06/24 03:20:58;;;;;;;1.45;0.90;;;;;;;22.23;38.63;99442.66;4447284;32;34000;-84
2022/06/24 03:23:27;;;;;;;1.25;0.80;;;;;;;22.14;39.41;99443.22;4452190;32;34554;-85
2022/06/24 03:25:56;;;;;;;1.98;0.90;;;;;;;22.03;39.44;99441.25;4461875;32;34678;-85
2022/06/24 03:28:25;;;;;;;1.73;1.10;;;;;;;21.99;39.34;99442.44;4466415;32;34404;-84
2022/06/24 03:30:54;;;;;;;1.45;0.90;;;;;;;22.20;39.18;99440.19;4460822;32;34392;-85
2022/06/24 03:33:24;;;;;;;2.78;1.30;;;;;;;22.32;39.04;99438.56;4460985;32;33807;-84
2022/06/24 03:35:53;;;;;;;1.43;0.80;;;;;;;21.95;39.58;99435.63;4461122;32;33530;-84
2022/06/24 03:38:22;;;;;;;3.25;1.45;;;;;;;22.07;39.03;99437.50;4454233;32;33933;-85
2022/06/24 03:40:50;;;;;;;1.52;1.00;;;;;;;22.12;38.99;99443.31;4447014;32;33149;-85
2022/06/24 03:43:19;;;;;;;1.92;1.00;;;;;;;22.04;40.29;99448.25;4447423;32;33365;-84
2022/06/24 03:45:48;;;;;;;2.30;0.90;;;;;;;21.98;40.23;99443.34;4447535;32;33963;-84
2022/06/24 03:48:17;;;;;;;1.95;1.08;;;;;;;22.26;39.52;99441.62;4447604;32;33893;-84
2022/06/24 03:50:47;;;;;;;1.10;0.93;;;;;;;22.15;39.41;99444.91;4452813;32;33369;-84
2022/06/24 03:53:16;;;;;;;1.57;1.07;;;;;;;22.18;39.49;99450.03;4448446;32;34666;-84
2022/06/24 03:55:48;;;;;;;1.70;1.00;;;;;;;22.31;38.90;99450.94;4447335;32;34801;-84
2022/06/24 03:58:17;;;;;;;1.92;1.00;;;;;;;22.32;39.23;99452.59;4447192;32;33858;-85
2022/06/24 04:00:46;;;;;;;4.55;1.20;;;;;;;22.28;39.58;99448.50;4447414;32;33052;-85
2022/06/24 04:03:19;;;;;;;2.08;1.12;;;;;;;22.42;39.01;99447.56;4447055;32;33966;-84
2022/06/24 04:05:49;;;;;;;1.73;1.08;;;;;;;22.41;39.67;99450.34;4452528;32;34054;-84
2022/06/24 04:08:18;;;;;;;1.08;0.80;;;;;;;22.65;39.30;99453.97;4447428;32;33419;-84
2022/06/24 04:10:47;;;;;;;2.00;1.10;;;;;;;22.63;39.58;99452.37;4447199;32;33424;-85
2022/06/24 04:13:15;;;;;;;2.85;1.50;;;;;;;22.81;39.33;99456.47;4462109;32;34334;-85
2022/06/24 04:15:46;;;;;;;3.20;0.85;;;;;;;22.70;39.79;99456.31;4462693;32;34431;-84
2022/06/24 04:18:14;;;;;;;0.88;0.77;;;;;;;22.71;39.34;99458.88;4469496;32;34031;-84
2022/06/24 04:20:44;;;;;;;3.42;1.23;;;;;;;22.97;39.43;99464.19;4450280;32;33434;-84
2022/06/24 04:23:14;;;;;;;1.50;0.90;;;;;;;22.90;39.56;99461.09;4464560;32;33253;-84
2022/06/24 04:25:43;;;;;;;1.67;1.00;;;;;;;22.69;39.38;99459.91;4464674;32;35511;-84
2022/06/24 04:28:12;;;;;;;0.98;0.70;;;;;;;22.85;39.20;99465.00;4460970;32;34406;-84
2022/06/24 04:30:41;;;;;;;1.85;1.02;;;;;;;22.88;39.55;99464.78;4469097;32;34139;-84
2022/06/24 04:33:10;;;;;;;1.33;0.77;;;;;;;23.09;39.18;99465.19;4460470;32;33814;-84
2022/06/24 04:35:40;;;;;;;1.37;0.73;;;;;;;23.25;38.86;99463.16;4462608;32;33933;-84
2022/06/24 04:38:09;;;;;;;2.30;1.33;;;;;;;23.03;39.14;99470.88;4463250;32;34425;-84
2022/06/24 04:40:39;;;;;;;2.20;0.80;;;;;;;23.26;39.00;99464.84;4464222;32;33151;-85
2022/06/24 04:43:08;;;;;;;2.75;1.20;;;;;;;23.39;39.14;99468.34;4470135;32;32906;-85
2022/06/24 04:45:37;;;;;;;2.28;1.25;;;;;;;23.97;37.42;99468.69;4464555;32;34648;-85
2022/06/24 04:48:07;;;;;;;1.87;1.02;;;;;;;25.20;34.45;99467.53;4464358;32;33847;-84
2022/06/24 04:50:35;;;;;;;2.15;1.08;;;;;;;25.63;34.27;99463.31;4464116;32;33984;-84
2022/06/24 04:53:11;;;;;;;1.80;1.12;;;;;;;26.61;32.02;99463.34;4450243;32;33592;-85
2022/06/24 04:55:41;;;;;;;5.00;1.90;;;;;;;27.21;31.24;99460.97;4453607;32;34567;-85
2022/06/24 04:58:09;;;;;;;1.90;0.90;;;;;;;27.87;29.73;99465.88;4448697;32;35190;-85
2022/06/24 05:00:39;;;;;;;3.40;1.23;;;;;;;27.75;29.79;99472.28;4448503;32;34203;-85
2022/06/24 05:03:08;;;;;;;2.58;1.20;;;;;;;28.33;29.29;99463.56;4463881;32;33665;-85
2022/06/24 05:05:36;;;;;;;2.53;1.00;;;;;;;28.59;28.23;99471.91;4448783;32;33882;-84
2022/06/24 05:08:06;;;;;;;3.65;1.00;;;;;;;28.64;28.54;99475.81;4451532;32;34013;-85
2022/06/24 05:10:35;;;;;;;1.58;0.88;;;;;;;28.60;28.66;99469.06;4454201;32;33478;-86
2022/06/24 05:13:05;;;;;;;1.00;0.70;;;;;;;29.13;27.79;99471.28;4449098;32;33982;-84
2022/06/24 05:15:34;;;;;;;1.50;1.10;;;;;;;28.83;27.64;99477.63;4459414;32;33272;-86
2022/06/24 05:18:03;;;;;;;2.35;1.10;;;;;;;28.57;27.91;99473.88;4448541;32;34080;-85
2022/06/24 05:20:32;;;;;;;1.50;0.88;;;;;;;28.60;28.15;99470.91;4448601;32;34067;-85
2022/06/24 05:23:01;;;;;;;0.73;0.60;;;;;;;28.21;28.56;99470.88;4453929;32;34602;-85
2022/06/24 05:25:30;;;;;;;1.95;0.85;;;;;;;28.41;28.20;99463.72;4448294;32;34566;-83
2022/06/24 05:27:58;;;;;;;2.22;1.25;;;;;;;28.30;27.91;99472.72;4447962;32;33723;-85
2022/06/24 05:30:29;;;;;;;1.10;0.82;;;;;;;28.29;27.82;99484.34;4448302;32;33440;-84
2022/06/24 05:32:57;;;;;;;1.77;1.10;;;;;;;28.17;28.37;99485.44;4448346;32;35612;-85
2022/06/24 05:35:26;;;;;;;1.05;0.75;;;;;;;27.67;29.13;99479.12;4457643;32;33922;-84
2022/06/24 05:37:55;;;;;;;2.28;0.90;;;;;;;27.79;28.88;99477.19;4463709;32;34627;-85
2022/06/24 05:40:24;;;;;;;1.65;0.80;;;;;;;27.73;29.01;99484.88;4463893;32;33333;-85
2022/06/24 05:42:52;;;;;;;2.25;1.15;;;;;;;27.92;28.73;99484.16;4463660;32;33575;-85
2022/06/24 05:45:21;;;;;;;1.20;0.80;;;;;;;28.01;28.65;99486.84;4465461;32;33972;-85
2022/06/24 05:47:51;;;;;;;1.12;0.70;;;;;;;28.11;28.57;99486.84;4485106;32;33840;-85
2022/06/24 05:50:20;;;;;;;1.85;0.77;;;;;;;28.20;28.25;99493.19;4479172;32;33868;-84
2022/06/24 05:55:36;;;;;;;1.42;0.70;;;;;;;28.06;28.95;99481.09;4479670;32;33768;-85
2022/06/24 05:58:05;;;;;;;5.95;1.00;;;;;;;27.91;28.98;99495.78;4479119;32;33798;-84
2022/06/24 06:00:34;;;;;;;7.62;1.37;;;;;;;27.63;29.12;99488.34;4463158;32;33598;-85
2022/06/24 06:03:05;;;;;;;4.03;1.02;;;;;;;27.41;29.94;99492.06;4468554;32;33751;-86
2022/06/24 06:05:34;;;;;;;2.42;0.73;;;;;;;26.51;30.95;99492.50;4463689;32;33254;-86
2022/06/24 06:08:03;;;;;;;1.67;0.80;;;;;;;26.72;31.38;99489.87;4463579;32;34711;-85
2022/06/24 06:10:32;;;;;;;3.03;1.50;;;;;;;26.88;30.61;99489.47;4461578;32;34102;-86
2022/06/24 06:13:00;;;;;;;1.87;1.23;;;;;;;26.47;31.50;99483.09;4461337;32;34525;-85
2022/06/24 06:15:30;;;;;;;1.95;0.90;;;;;;;25.82;32.58;99478.62;4468680;32;33519;-85
2022/06/24 06:18:00;;;;;;;2.08;1.00;;;;;;;26.25;32.05;99481.34;4463060;32;33784;-85
2022/06/24 06:20:31;;;;;;;1.52;0.90;;;;;;;26.18;32.36;99482.81;4457280;32;33883;-85
2022/06/24 06:23:00;;;;;;;3.28;0.90;;;;;;;25.82;32.49;99475.97;4478327;32;34004;-86
2022/06/24 06:25:28;;;;;;;2.70;1.25;;;;;;;25.75;33.33;99484.41;4460073;32;34842;-86
2022/06/24 06:27:57;;;;;;;2.05;1.00;;;;;;;26.10;33.03;99478.13;4461157;32;34681;-85
2022/06/24 06:30:26;;;;;;;0.90;0.80;;;;;;;26.26;32.63;99479.53;4468920;32;34124;-86
2022/06/24 06:32:55;;;;;;;2.37;1.02;;;;;;;26.11;33.17;99477.16;4464970;32;33968;-85
2022/06/24 06:35:24;;;;;;;5.95;1.12;;;;;;;26.21;32.72;99469.25;4459744;32;33894;-86
2022/06/24 06:37:54;;;;;;;2.50;1.15;;;;;;;26.37;33.05;99477.69;4462468;32;34120;-85
2022/06/24 06:40:24;;;;;;;;;;;;;;;26.01;32.76;99470.91;4459893;32;33381;-85
2022/06/24 06:42:55;;;;;;;1.90;0.90;;;;;;;26.50;32.55;99474.00;4466051;32;33629;-86
2022/06/24 06:45:42;;;;;;;2.08;0.95;;;;;;;26.18;32.60;99466.87;4462615;32;33193;-85
2022/06/24 06:48:11;;;;;;;2.17;1.05;;;;;;;26.48;32.20;99468.84;4460183;32;33901;-85
2022/06/24 06:50:40;;;;;;;2.10;0.82;;;;;;;25.92;33.39;99463.66;4461249;32;34277;-86
2022/06/24 06:53:10;;;;;;;1.20;0.80;;;;;;;26.04;33.55;99469.81;4461359;32;33852;-85
2022/06/24 06:55:39;;;;;;;3.30;1.77;;;;;;;26.46;32.55;99467.25;4463291;32;34165;-85
2022/06/24 06:58:14;;;;;;;2.05;0.90;;;;;;;26.27;32.57;99466.13;4469071;32;33796;-85
2022/06/24 07:00:44;;;;;;;2.55;1.35;;;;;;;26.49;32.38;99462.53;4463221;32;34162;-85
2022/06/24 07:03:13;;;;;;;1.70;0.98;;;;;;;26.65;31.86;99462.13;4463211;32;33933;-87
2022/06/24 07:05:42;;;;;;;1.67;0.82;;;;;;;26.66;32.20;99469.13;4448535;32;34664;-85
2022/06/24 07:08:13;;;;;;;2.15;0.90;;;;;;;26.83;31.90;99461.56;4455610;32;33864;-85
2022/06/24 07:10:43;;;;;;;9.93;1.30;;;;;;;26.69;32.00;99463.53;4462030;32;33780;-86
2022/06/24 07:13:13;;;;;;;3.22;1.00;;;;;;;26.93;32.13;99467.78;4449631;32;33876;-84
2022/06/24 07:15:42;;;;;;;1.62;0.70;;;;;;;27.03;31.88;99466.00;4445343;32;34618;-85
2022/06/24 07:18:11;;;;;;;1.65;0.77;;;;;;;26.87;31.45;99465.63;4452161;32;33144;-84
2022/06/24 07:20:40;;;;;;;3.40;0.82;;;;;;;27.04;31.61;99473.03;4444903;32;33478;-84
2022/06/24 07:23:09;;;;;;;3.25;1.58;;;;;;;27.19;30.64;99463.75;4450516;32;33694;-85
2022/06/24 07:25:39;;;;;;;2.97;0.90;;;;;;;27.03;30.71;99463.34;4449950;32;34696;-84
2022/06/24 07:28:08;;;;;;;1.02;0.57;;;;;;;26.99;30.35;99460.13;4451534;32;33772;-85
2022/06/24 07:30:37;;;;;;;1.33;0.80;;;;;;;27.01;30.08;99465.28;4453026;32;33414;-84
2022/06/24 07:33:06;;;;;;;1.45;0.77;;;;;;;27.57;28.79;99458.72;4450989;32;33525;-84
2022/06/24 07:35:35;;;;;;;1.60;0.85;;;;;;;27.74;29.14;99454.56;4461404;32;32800;-85
2022/06/24 07:38:20;;;;;;;2.40;0.77;;;;;;;27.63;28.94;99459.03;4466118;32;33737;-84
2022/06/24 07:40:51;;;;;;;1.10;0.70;;;;;;;27.73;29.19;99458.25;4468145;32;33429;-85
2022/06/24 07:43:20;;;;;;;1.65;0.57;;;;;;;27.75;28.66;99454.47;4450416;32;34238;-85
2022/06/24 07:45:49;;;;;;;2.50;1.52;;;;;;;28.02;28.16;99453.84;4454786;32;33897;-85
2022/06/24 07:48:18;;;;;;;0.75;0.62;;;;;;;27.76;28.63;99447.28;4464411;32;33819;-85
2022/06/24 07:50:47;;;;;;;1.73;0.80;;;;;;;28.34;28.23;99447.41;4461461;32;33391;-84
2022/06/24 07:53:16;;;;;;;2.87;0.80;;;;;;;28.29;28.15;99455.88;4478867;32;33892;-84
2022/06/24 07:58:33;;;;;;;1.65;0.80;;;;;;;28.19;27.80;99446.97;4454562;32;33146;-84
2022/06/24 08:01:02;;;;;;;1.67;0.75;;;;;;;28.43;28.13;99445.75;4465402;32;34120;-85
2022/06/24 08:03:31;;;;;;;1.58;0.50;;;;;;;28.76;27.61;99444.50;4472886;32;33962;-85
2022/06/24 08:06:00;;;;;;;0.95;0.70;;;;;;;28.72;26.36;99440.41;4448037;32;33853;-85
2022/06/24 08:08:28;;;;;;;0.82;0.60;;;;;;;28.56;27.43;99442.81;4450619;32;33942;-84
2022/06/24 08:10:58;;;;;;;2.28;0.73;;;;;;;28.98;27.84;99437.16;4445030;32;34129;-85
2022/06/24 08:13:27;;;;;;;1.42;0.73;;;;;;;28.76;26.35;99443.66;4445483;32;33904;-85
2022/06/24 08:15:57;;;;;;;3.53;0.95;;;;;;;29.39;26.26;99437.75;4455708;32;34465;-84
2022/06/24 08:18:27;;;;;;;2.35;0.75;;;;;;;29.36;25.60;99446.91;4459200;32;33537;-85
2022/06/24 08:20:55;;;;;;;1.83;0.70;;;;;;;29.11;26.25;99443.03;4464623;32;32998;-85
2022/06/24 08:23:24;;;;;;;1.20;0.70;;;;;;;29.61;26.66;99437.34;4460166;32;33879;-85
2022/06/24 08:25:53;;;;;;;2.08;0.80;;;;;;;29.59;26.54;99436.66;4459706;32;33851;-85
2022/06/24 08:28:22;;;;;;;1.42;0.75;;;;;;;29.36;26.02;99438.88;4461508;32;34196;-85
2022/06/24 08:30:51;;;;;;;1.65;0.70;;;;;;;29.21;25.95;99440.31;4446020;32;33980;-85
2022/06/24 08:33:22;;;;;;;1.08;0.62;;;;;;;29.59;26.18;99441.16;4452969;32;33473;-85
2022/06/24 08:35:52;;;;;;;1.95;0.77;;;;;;;29.63;25.08;99434.53;4461627;32;34624;-85
2022/06/24 08:38:21;;;;;;;1.00;0.70;;;;;;;29.77;25.01;99437.59;4464191;32;34514;-85
2022/06/24 08:40:51;;;;;;;1.48;0.80;;;;;;;29.93;25.66;99433.38;4474348;32;34001;-85
2022/06/24 08:43:21;;;;;;;1.33;0.80;;;;;;;29.99;24.78;99430.13;4463130;32;33831;-85
2022/06/24 08:45:51;;;;;;;2.53;0.97;;;;;;;29.93;25.60;99430.72;4460310;32;33457;-85
2022/06/24 08:48:21;;;;;;;1.48;0.70;;;;;;;30.13;25.68;99431.41;4465421;32;33809;-85
2022/06/24 08:50:51;;;;;;;1.90;0.60;;;;;;;30.29;24.85;99431.59;4461345;32;33367;-85
2022/06/24 08:53:22;;;;;;;1.60;0.73;;;;;;;30.27;24.52;99424.72;4463117;32;34459;-85
2022/06/24 08:55:52;;;;;;;0.70;0.70;;;;;;;30.34;25.43;99423.13;4461872;32;34790;-85
2022/06/24 08:58:23;;;;;;;1.00;0.70;;;;;;;30.29;25.53;99420.91;4459924;32;33755;-85
2022/06/24 09:00:51;;;;;;;0.77;0.60;;;;;;;30.47;25.95;99428.94;4468762;32;32798;-85
2022/06/24 09:03:22;;;;;;;1.27;0.62;;;;;;;30.60;23.79;99429.37;4461555;32;33687;-85
2022/06/24 09:05:50;;;;;;;0.98;0.68;;;;;;;29.97;25.54;99422.25;4448714;32;34252;-85
2022/06/24 09:08:19;;;;;;;0.65;0.60;;;;;;;30.48;25.82;99424.41;4446600;32;33475;-85
2022/06/24 09:11:06;;;;;;;1.70;0.93;;;;;;;30.59;25.72;99419.66;4446742;32;33945;-85
2022/06/24 09:13:42;;;;;;;1.17;0.88;;;;;;;30.84;24.81;99419.88;4446530;32;34596;-85
2022/06/24 09:16:11;;;;;;;0.90;0.75;;;;;;;30.77;24.57;99421.47;4453601;32;33579;-85
2022/06/24 09:18:42;;;;;;;1.55;0.50;;;;;;;31.02;24.67;99428.69;4447342;32;33972;-85
2022/06/24 09:21:22;;;;;;;2.45;0.68;;;;;;;31.28;24.18;99422.47;4447177;32;32683;-85
2022/06/24 09:23:53;;;;;;;1.35;0.90;;;;;;;31.27;24.14;99420.81;4447092;32;34365;-85
2022/06/24 09:26:33;;;;;;;1.17;0.70;;;;;;;31.34;23.55;99419.16;4447470;32;33730;-85
2022/06/24 09:29:03;;;;;;;1.10;0.70;;;;;;;31.44;22.86;99422.59;4447823;32;34550;-84
2022/06/24 09:31:32;;;;;;;1.37;0.60;;;;;;;31.02;22.95;99417.97;4453653;32;32495;-85
2022/06/24 09:34:13;;;;;;;2.17;0.98;;;;;;;31.02;22.91;99412.59;4448150;32;33861;-85
2022/06/24 09:36:43;;;;;;;3.53;0.80;;;;;;;31.21;23.21;99416.06;4448527;32;33816;-85
2022/06/24 09:39:14;;;;;;;1.62;0.65;;;;;;;31.54;23.29;99419.78;4448291;32;33611;-85
2022/06/24 09:41:55;;;;;;;1.48;0.60;;;;;;;31.67;21.95;99419.31;4452307;32;33270;-85
2022/06/24 09:44:24;;;;;;;0.43;0.40;;;;;;;31.55;23.23;99412.56;4464097;32;33669;-85
2022/06/24 09:47:04;;;;;;;1.35;1.02;;;;;;;31.68;22.55;99412.97;4469475;32;33900;-85
2022/06/24 09:49:34;;;;;;;1.27;0.70;;;;;;;31.72;22.25;99413.47;4463913;32;33837;-85
2022/06/24 09:52:04;;;;;;;1.73;0.98;;;;;;;31.79;22.33;99412.63;4455646;32;33091;-86
2022/06/24 09:54:33;;;;;;;1.60;0.90;;;;;;;32.01;22.17;99418.41;4451990;32;33618;-85
2022/06/24 09:57:03;;;;;;;1.45;0.80;;;;;;;32.16;22.50;99408.72;4447289;32;32781;-85
2022/06/24 10:02:21;;;;;;;2.80;1.45;;;;;;;31.48;21.83;99412.34;4468862;32;33416;-85
2022/06/24 10:04:53;;;;;;;0.95;0.47;;;;;;;32.00;22.03;99412.22;4453392;32;33417;-85
2022/06/24 10:07:25;;;;;;;2.17;0.70;;;;;;;31.60;21.44;99400.34;4447881;32;33503;-85
2022/06/24 10:10:05;;;;;;;3.10;0.80;;;;;;;31.81;21.65;99407.94;4448267;32;34198;-85
2022/06/24 10:12:39;;;;;;;1.45;0.68;;;;;;;31.83;22.33;99399.75;4448124;32;33033;-85
2022/06/24 10:15:09;;;;;;;1.25;0.90;;;;;;;31.86;21.87;99396.72;4450241;32;33689;-85
2022/06/24 10:17:38;;;;;;;6.22;1.55;;;;;;;32.04;23.17;99400.16;4453709;32;33937;-85
2022/06/24 10:20:10;;;;;;;1.33;0.70;;;;;;;32.21;22.44;99395.66;4447787;32;34643;-85
2022/06/24 10:22:41;;;;;;;2.65;0.80;;;;;;;31.78;22.61;99392.19;4447590;32;34240;-85
2022/06/24 10:25:10;;;;;;;0.73;0.50;;;;;;;31.87;22.04;99385.84;4447894;32;32957;-85
2022/06/24 10:28:05;;;;;;;1.02;0.60;;;;;;;32.26;22.26;99389.78;4462136;32;34794;-85
2022/06/24 10:30:54;;;;;;;0.98;0.88;;;;;;;32.70;21.83;99384.06;4463683;32;33152;-85
2022/06/24 10:33:26;;;;;;;1.70;0.90;;;;;;;32.84;20.93;99383.37;4465593;32;33102;-85
2022/06/24 10:36:04;;;;;;;2.75;0.75;;;;;;;32.85;20.87;99373.47;4454602;32;34735;-85
2022/06/24 10:38:37;;;;;;;1.08;0.50;;;;;;;32.47;22.17;99371.28;4452842;32;34016;-85
2022/06/24 10:41:10;;;;;;;1.90;0.50;;;;;;;33.06;21.62;99363.03;4463627;32;33548;-86
2022/06/24 10:43:41;;;;;;;0.45;0.43;;;;;;;32.78;21.99;99370.63;4463317;32;33828;-85
2022/06/24 10:46:17;;;;;;;1.75;0.70;;;;;;;33.24;21.43;99368.16;4463538;32;34153;-85
2022/06/24 10:49:03;;;;;;;2.47;0.57;;;;;;;32.91;21.05;99362.88;4463516;32;34388;-85
2022/06/24 10:51:34;;;;;;;1.30;0.60;;;;;;;33.55;20.68;99354.72;4458963;32;33854;-86
2022/06/24 10:54:13;;;;;;;0.77;0.47;;;;;;;33.53;20.63;99354.06;4453150;32;33370;-85
2022/06/24 10:56:45;;;;;;;1.95;1.27;;;;;;;33.60;19.82;99350.72;4448297;32;33626;-86
2022/06/24 10:59:17;;;;;;;4.00;0.90;;;;;;;33.80;20.74;99346.53;4448155;32;33746;-85
2022/06/24 11:01:48;;;;;;;11.90;0.90;;;;;;;33.63;19.94;99345.78;4447861;32;34489;-85
2022/06/24 11:04:23;;;;;;;0.55;0.47;;;;;;;34.02;19.40;99346.72;4457392;32;34448;-86
2022/06/24 11:07:10;;;;;;;0.57;0.57;;;;;;;34.40;19.90;99351.13;4470385;32;33888;-85
2022/06/24 11:09:39;;;;;;;0.47;0.40;;;;;;;34.18;18.40;99346.63;4463035;32;34782;-85
2022/06/24 11:12:28;;;;;;;3.20;0.60;;;;;;;34.39;19.93;99349.47;4457567;32;33948;-85
2022/06/24 11:14:58;;;;;;;0.62;0.43;;;;;;;34.94;19.83;99333.09;4450076;32;34091;-84
2022/06/24 11:17:27;;;;;;;1.23;0.87;;;;;;;34.78;19.15;99328.72;4451206;32;33857;-85
2022/06/24 11:19:56;;;;;;;0.95;0.62;;;;;;;34.90;19.23;99331.81;4452683;32;33339;-85
2022/06/24 11:22:29;;;;;;;1.48;0.55;;;;;;;34.37;19.21;99326.44;4447566;32;34086;-84
2022/06/24 11:25:00;;;;;;;0.77;0.60;;;;;;;34.33;19.13;99330.50;4462864;32;33061;-85
2022/06/24 11:27:33;;;;;;;;;;;;;;;34.59;18.57;99324.69;4460652;32;33699;-85
2022/06/24 11:30:02;;;;;;;1.25;0.73;;;;;;;34.98;18.25;99318.22;4459006;32;33493;-84
2022/06/24 11:32:50;;;;;;;0.95;0.62;;;;;;;35.02;18.31;99314.97;4453611;32;33473;-84
2022/06/24 11:35:19;;;;;;;1.73;0.68;;;;;;;34.90;18.39;99312.94;4461560;32;34107;-85
2022/06/24 11:37:50;;;;;;;1.23;0.60;;;;;;;35.02;19.10;99306.06;4446249;32;33646;-84
2022/06/24 11:40:21;;;;;;;;;;;;;;;35.26;19.09;99303.06;4474570;32;33474;-85
2022/06/24 11:42:50;;;;;;;0.55;0.40;;;;;;;35.55;18.22;99306.72;4456895;32;33652;-85
2022/06/24 11:45:31;;;;;;;3.47;0.55;;;;;;;35.92;19.01;99298.56;4459905;32;32163;-85
2022/06/24 11:48:01;;;;;;;2.42;0.70;;;;;;;36.09;17.06;99298.13;4448195;32;33921;-85
2022/06/24 11:50:30;;;;;;;0.75;0.50;;;;;;;35.84;18.09;99299.56;4449112;32;33664;-85
2022/06/24 11:53:00;;;;;;;0.80;0.50;;;;;;;35.94;16.94;99302.75;4450337;32;33189;-84
2022/06/24 11:55:35;;;;;;;1.20;0.47;;;;;;;35.71;17.65;99302.09;4455468;32;33654;-85
2022/06/24 11:58:06;;;;;;;2.83;0.60;;;;;;;35.60;17.30;99288.09;4450588;32;33757;-84
2022/06/24 12:00:37;;;;;;;1.35;0.73;;;;;;;36.20;17.45;99294.09;4460583;32;33736;-84
2022/06/24 12:03:06;;;;;;;;;;;;;;;35.70;17.09;99287.78;4452168;32;33618;-85